• Join FlightAware (Why Join?)
  • Login
  • US Flag 
08:33AM EDT


 

Airport Tracker/Info


-or-


 

Live Flight TrackerFlight Track Log ✈ N56MP ✈ 15-Jun-2013 ✈ KLHQ - KPVD

Flight Track Log - Related Links

Times and Time Zones

All times are in EDT time to prevent confusion due to time zone crossing. See the N56MP flight status page for this flight to view local times or setup timezone preferences in your user account.

Time Position Orientation Groundspeed Altitude Reporting Facility
EDT Latitude Longitude Course Direction KTS MPH feet Rate Location/Type
12:29PM 39.7419 -82.6447 80° East 148 170 3,400  Level Indianapolis Center
12:30PM 39.7428 -82.6383 80° East 138 159 3,500 1,320 Climbing Indianapolis Center
12:31PM 39.7556 -82.5869 72° East 146 168 5,100 1,140 Climbing Indianapolis Center
12:32PM 39.7689 -82.5289 73° East 160 184 5,900 420 Climbing Indianapolis Center
12:33PM 39.7886 -82.4453 73° East 198 228 6,000 420 Climbing Indianapolis Center
12:34PM 39.8067 -82.3681 73° East 219 252 6,800 1,020 Climbing Indianapolis Center
12:35PM 39.8217 -82.3006 74° East 197 227 8,100 1,200 Climbing Indianapolis Center
12:36PM 39.8494 -82.2406 59° Northeast 195 224 9,300 1,200 Climbing Indianapolis Center
12:37PM 39.8806 -82.1794 56° Northeast 200 230 10,600 1,320 Climbing Indianapolis Center
12:38PM 39.9128 -82.1194 55° Northeast 201 231 12,100 1,500 Climbing Indianapolis Center
12:39PM 39.9417 -82.0539 60° Northeast 207 238 13,700 1,500 Climbing Indianapolis Center
12:40PM 39.9561 -81.9772 76° East 214 246 15,300 1,380 Climbing Indianapolis Center
12:41PM 39.9742 -81.8975 74° East 225 259 16,600 1,200 Climbing Indianapolis Center
12:42PM 39.9944 -81.8022 74° East 233 268 17,800 1,140 Climbing Indianapolis Center
12:43PM 40.0122 -81.7236 74° East 245 282 19,000 1,260 Climbing Indianapolis Center
12:44PM 40.0300 -81.6361 75° East 248 285 20,500 1,260 Climbing Indianapolis Center
12:45PM 40.0489 -81.5503 74° East 247 284 21,600 1,140 Climbing Indianapolis Center
12:46PM 40.0714 -81.4444 74° East 257 296 22,900 1,020 Climbing Indianapolis Center
12:47PM 40.0911 -81.3519 74° East 263 303 23,800 900 Climbing Indianapolis Center
12:48PM 40.1111 -81.2561 75° East 270 311 24,800 960 Climbing Indianapolis Center
12:49PM 40.1308 -81.1636 74° East 263 303 25,800 840 Climbing Indianapolis Center
12:50PM 40.1472 -81.0992 72° East 261 300 26,300 600 Climbing Cleveland Center
12:51PM 40.1664 -81.0042 75° East 261 300 26,900 300 Climbing Cleveland Center
12:52PM 40.1875 -80.9064 74° East 261 300 27,000  Climbing Cleveland Center
12:53PM 40.2108 -80.7978 74° East 278 320 27,000  Level Cleveland Center
12:54PM 40.2339 -80.6892 74° East 295 339 27,000  Level Cleveland Center
12:55PM 40.2547 -80.5778 76° East 306 352 27,000  Level Cleveland Center
12:56PM 40.2778 -80.4661 75° East 311 358 27,000  Level Cleveland Center
12:57PM 40.3025 -80.3517 74° East 311 358 27,000  Level Cleveland Center
12:58PM 40.3211 -80.2456 77° East 311 358 27,000  Level Cleveland Center
12:59PM 40.3436 -80.1308 76° East 317 365 27,000  Level Cleveland Center
01:00PM 40.3700 -80.0028 75° East 317 365 27,000  Level Cleveland Center
01:01PM 40.3925 -79.8961 74° East 317 365 27,000  Level Cleveland Center
01:02PM 40.4144 -79.7814 76° East 317 365 27,000  Level Cleveland Center
01:03PM 40.4367 -79.6719 75° East 317 365 27,000  Level Cleveland Center
01:04PM 40.4586 -79.5597 76° East 317 365 27,000  Level Cleveland Center
01:05PM 40.4806 -79.4503 75° East 317 365 27,000  Level Cleveland Center
01:06PM 40.5022 -79.3381 76° East 317 365 27,000  Level Cleveland Center
01:07PM 40.5197 -79.2256 78° East 317 365 27,000  Level Cleveland Center
01:08PM 40.5414 -79.1158 75° East 317 365 27,000  Level Cleveland Center
01:09PM 40.5628 -79.0006 76° East 317 365 27,000  Level Cleveland Center
01:10PM 40.5842 -78.8908 76° East 317 365 27,000  Level Cleveland Center
01:11PM 40.6053 -78.7753 76° East 317 365 27,000  Level Cleveland Center
01:12PM 40.6264 -78.6653 76° East 317 365 27,000  Level Cleveland Center
01:13PM 40.6472 -78.5497 77° East 317 365 27,000  Level Cleveland Center
01:14PM 40.6683 -78.4369 76° East 317 365 27,000  Level Cleveland Center
01:16PM 40.7172 -78.1753 76° East 325 374 27,000  Level New York Center
01:17PM 40.7586 -78.0811 60° Northeast 307 353 27,000  Level New York Center
01:18PM 40.8039 -77.9872 57° Northeast 302 348 27,000  Level New York Center
01:19PM 40.8472 -77.8931 59° Northeast 296 341 27,000  Level New York Center
01:20PM 40.8944 -77.7989 56° Northeast 296 341 27,000  Level New York Center
01:21PM 40.9397 -77.7047 58° Northeast 301 346 27,000  Level New York Center
01:22PM 40.9867 -77.6106 57° Northeast 301 346 27,000  Level New York Center
01:23PM 41.0339 -77.5161 56° Northeast 306 352 27,000  Level New York Center
01:24PM 41.0811 -77.4189 57° Northeast 306 352 27,000  Level New York Center
01:25PM 41.1261 -77.3214 58° Northeast 306 352 27,000  Level New York Center
01:26PM 41.1731 -77.2239 57° Northeast 306 352 27,000  Level New York Center
01:27PM 41.2200 -77.1292 57° Northeast 306 352 27,000  Level New York Center
01:28PM 41.2667 -77.0314 58° Northeast 306 352 27,000  Level New York Center
01:29PM 41.3136 -76.9336 57° Northeast 306 352 27,000  Level New York Center
01:30PM 41.3603 -76.8328 58° Northeast 306 352 27,000  Level New York Center
01:31PM 41.3975 -76.7558 57° Northeast 306 352 27,000  Level New York Center
01:32PM 41.4489 -76.6497 57° Northeast 306 352 27,000  Level New York Center
01:33PM 41.4953 -76.5486 58° Northeast 306 352 27,000  Level New York Center
01:34PM 41.5419 -76.4500 58° Northeast 306 352 27,000  Level New York Center
01:35PM 41.5881 -76.3511 58° Northeast 306 352 27,000  Level New York Center
01:36PM 41.6367 -76.2497 57° Northeast 306 352 27,000  Level New York Center
01:37PM 41.6808 -76.1506 59° Northeast 306 352 27,000  Level New York Center
01:38PM 41.7269 -76.0486 59° Northeast 306 352 27,000  Level New York Center
01:40PM 41.8328 -75.8258 57° Northeast 320 368 27,000  Level Boston Center
01:41PM 41.8775 -75.7278 58° Northeast 314 361 27,000  Level Boston Center
01:42PM 41.9219 -75.6294 59° Northeast 309 356 27,000  Level Boston Center
01:43PM 41.9686 -75.5286 58° Northeast 309 356 27,000  Level Boston Center
01:45PM 42.0217 -75.4081 59° Northeast 309 356 27,000  Level Boston Center
01:46PM 42.0661 -75.3094 59° Northeast 309 356 27,000  Level Boston Center
01:47PM 42.0814 -75.1900 80° East 309 356 27,000  Level Boston Center
01:48PM 42.0889 -75.0558 86° East 309 356 27,000  Level Boston Center
01:49PM 42.1019 -74.9333 82° East 314 361 27,000  Level Boston Center
01:50PM 42.1150 -74.8108 82° East 326 375 27,000  Level Boston Center
01:51PM 42.1258 -74.6908 83° East 326 375 27,000  Level Boston Center
01:52PM 42.1367 -74.5678 83° East 332 382 27,000  Level Boston Center
01:53PM 42.1514 -74.4425 81° East 332 382 27,000  Level Boston Center
01:54PM 42.1661 -74.3197 81° East 326 375 27,000 -240 Level Boston Center
01:55PM 42.1764 -74.1939 84° East 331 381 26,600 -600 Descending Boston Center
01:56PM 42.1886 -74.0653 83° East 337 388 25,800 -780 Descending Boston Center
01:57PM 42.2014 -73.9031 84° East 354 407 24,900 -840 Descending Boston Center
01:58PM 42.2156 -73.7689 82° East 359 413 24,000 -840 Descending Boston Center
01:59PM 42.2292 -73.6542 81° East 368 423 23,300 -900 Descending Boston Center
02:00PM 42.2433 -73.4975 83° East 360 414 22,200 -1,020 Descending Boston Center
02:01PM 42.2550 -73.3658 83° East 348 400 21,300 -900 Descending Boston Center
02:02PM 42.2600 -73.2536 87° East 326 375 20,400 -900 Descending Boston Center
02:03PM 42.2525 -73.1300 95° East 326 375 19,500 -720 Descending Boston Center
02:04PM 42.2050 -73.0483 128° Southeast 321 369 19,000 -300 Descending Boston Center
02:05PM 42.1264 -72.9411 135° Southeast 328 377 19,000  Level Boston Center
02:06PM 42.0619 -72.8567 136° Southeast 328 377 19,000  Level Boston Center
02:07PM 41.9978 -72.7697 135° Southeast 323 372 19,000  Level Boston Center
02:08PM 41.9353 -72.6856 135° Southeast 318 366 19,000 -180 Level Boston Center
02:09PM 41.8814 -72.5822 125° Southeast 324 373 18,700 -540 Descending Boston Center
02:10PM 41.8272 -72.4847 127° Southeast 337 388 18,000 -1,080 Descending Boston Center
02:11PM 41.7689 -72.3817 127° Southeast 337 388 16,600 -1,500 Descending Boston Center
02:11PM 41.7458 -72.3372 125° Southeast 334 384 15,700 -1,920 Descending Boston Center
02:12PM 41.7208 -72.2956 129° Southeast 332 382 14,700 -2,220 Descending Boston Center
02:12PM 41.6894 -72.2400 127° Southeast 310 357 13,500 -2,220 Descending Boston Center
02:13PM 41.6667 -72.1956 124° Southeast 321 369 12,500 -2,280 Descending Boston Center
02:13PM 41.6414 -72.1511 127° Southeast 303 349 11,200 -1,260 Descending Boston Center
02:14PM 41.6183 -72.1097 127° Southeast 300 345 11,000 -540 Descending Boston Center
02:15PM 41.5681 -72.0183 126° Southeast 286 329 10,300 -1,200 Descending Boston Center
02:16PM 41.5322 -71.9242 117° Southeast 269 310 8,600 -1,680 Descending Boston Center
02:16PM 41.5133 -71.8800 120° Southeast 242 278 7,800 -1,440 Descending Boston Center
02:17PM 41.5069 -71.8525 107° East 247 284 7,200 -1,500 Descending Boston Center
02:18PM 41.4919 -71.8000 111° Southeast 225 259 6,300 -1,620 Descending Boston Center
02:18PM 41.5064 -71.7692 58° Northeast 208 239 5,600 -1,440 Descending Boston Center
02:18PM 41.5125 -71.7553 60° Northeast 212 244 5,300 -1,140 Descending Boston Center
02:19PM 41.5394 -71.7136 49° Northeast 193 222 4,500 -1,200 Descending Boston Center
02:19PM 41.5517 -71.6883 57° Northeast 217 250 4,100 -1,140 Descending Boston Center
02:20PM 41.5867 -71.6269 53° Northeast 211 243 3,100 -600 Descending Boston Center
02:21PM 41.6156 -71.5653 58° Northeast 197 227 3,000 -120 Descending Boston Center
02:22PM 41.6339 -71.5097 66° East 187 215 2,900 -600 Descending Boston Center
02:23PM 41.6603 -71.4369 64° Northeast 177 204 1,900 -900 Descending Boston Center
02:24PM 41.6850 -71.4117 37° Northeast 154 177 1,200 -780 Descending Boston Center
02:25PM 41.7122 -71.4139 357° North 99 114 400 -720 Descending Boston Center
02:27PM 41.7167 -71.4167 37° Northeast  Level FlightAware Approximate
02:34PM 41.7240 -71.4282 37° Northeast  Level Estimated
02:35PM 41.7240 -71.4282 37° Northeast  Level Estimated